Time;durP1;ratioP1;P1;durP2;ratioP2;P2;SDS_P1;SDS_P2;PMS_P1;PMS_P2;Temp;Humidity;BMP_temperature;BMP_pressure;BME280_temperature;BME280_humidity;BME280_pressure;Samples;Min_cycle;Max_cycle;Signal;HPM_P1;HPM_P2
2023/11/21 00:01:08;;;;;;;0.00;0.00;;;5.50;100.00;;;;;;4972809;28;20130;-74
2023/11/21 00:03:36;;;;;;;0.00;0.00;;;5.50;100.00;;;;;;4961731;28;20059;-74
2023/11/21 00:06:03;;;;;;;0.00;0.00;;;5.50;100.00;;;;;;4939342;28;20051;-74
2023/11/21 00:08:30;;;;;;;0.00;0.00;;;5.50;100.00;;;;;;4984616;28;20475;-74
2023/11/21 00:11:00;;;;;;;0.00;0.00;;;5.50;100.00;;;;;;4937232;28;20125;-74
2023/11/21 00:13:27;;;;;;;0.00;0.00;;;5.50;100.00;;;;;;4940542;29;20047;-75
2023/11/21 00:15:54;;;;;;;0.00;0.00;;;5.50;100.00;;;;;;4941867;28;20647;-74
2023/11/21 00:18:21;;;;;;;0.00;0.00;;;5.50;100.00;;;;;;4950520;28;20055;-74
2023/11/21 00:20:48;;;;;;;0.00;0.00;;;5.50;100.00;;;;;;4941746;29;20047;-74
2023/11/21 00:23:15;;;;;;;0.00;0.00;;;5.50;100.00;;;;;;4941794;28;20473;-74
2023/11/21 00:25:42;;;;;;;0.00;0.00;;;5.50;100.00;;;;;;4944014;28;20545;-74
2023/11/21 00:28:09;;;;;;;0.00;0.00;;;5.50;100.00;;;;;;4938583;28;20050;-74
2023/11/21 00:30:35;;;;;;;0.00;0.00;;;5.50;100.00;;;;;;4948453;28;20051;-75
2023/11/21 00:33:02;;;;;;;0.00;0.00;;;5.50;100.00;;;;;;4928817;28;20138;-74
2023/11/21 00:35:29;;;;;;;0.00;0.00;;;5.50;100.00;;;;;;4930381;28;20044;-75
2023/11/21 00:37:57;;;;;;;0.00;0.00;;;5.50;100.00;;;;;;4955145;28;20130;-75
2023/11/21 00:40:24;;;;;;;0.00;0.00;;;5.50;100.00;;;;;;4931184;28;20050;-75
2023/11/21 00:42:51;;;;;;;0.00;0.00;;;5.50;100.00;;;;;;4976637;28;20066;-75
2023/11/21 00:45:18;;;;;;;0.00;0.00;;;5.40;100.00;;;;;;4951571;28;20059;-73
2023/11/21 00:47:45;;;;;;;0.00;0.00;;;5.40;100.00;;;;;;4953382;28;20106;-74
2023/11/21 00:50:12;;;;;;;0.00;0.00;;;5.50;100.00;;;;;;4967896;28;20128;-74
2023/11/21 00:52:39;;;;;;;0.00;0.00;;;5.50;100.00;;;;;;4960598;28;20059;-73
2023/11/21 00:55:07;;;;;;;0.00;0.00;;;5.40;100.00;;;;;;4939899;28;20047;-73
2023/11/21 00:57:35;;;;;;;0.00;0.00;;;5.40;100.00;;;;;;4970626;28;20134;-72
2023/11/21 01:00:07;;;;;;;0.00;0.00;;;5.40;100.00;;;;;;4944696;28;20109;-72
2023/11/21 01:02:35;;;;;;;0.00;0.00;;;5.40;100.00;;;;;;4942666;28;20055;-72
2023/11/21 01:05:03;;;;;;;0.00;0.00;;;5.40;100.00;;;;;;4945925;28;20059;-73
2023/11/21 01:07:30;;;;;;;0.00;0.00;;;5.40;100.00;;;;;;4946929;28;20075;-72
2023/11/21 01:09:57;;;;;;;0.00;0.00;;;5.30;100.00;;;;;;4944865;28;20595;-73
2023/11/21 01:12:24;;;;;;;0.00;0.00;;;5.30;100.00;;;;;;4954965;28;20145;-72
2023/11/21 01:14:52;;;;;;;0.00;0.00;;;5.30;100.00;;;;;;4946182;29;20051;-72
2023/11/21 01:17:19;;;;;;;0.00;0.00;;;5.30;100.00;;;;;;4945359;28;20078;-72
2023/11/21 01:19:46;;;;;;;0.00;0.00;;;5.20;100.00;;;;;;4945201;28;20051;-72
2023/11/21 01:22:13;;;;;;;0.00;0.00;;;5.20;100.00;;;;;;4960758;28;20078;-72
2023/11/21 01:24:40;;;;;;;0.00;0.00;;;5.20;100.00;;;;;;4964940;28;20055;-72
2023/11/21 01:27:08;;;;;;;0.00;0.00;;;5.20;100.00;;;;;;4938110;28;20047;-74
2023/11/21 01:29:35;;;;;;;0.00;0.00;;;5.10;100.00;;;;;;4946808;28;20083;-74
2023/11/21 01:32:03;;;;;;;0.00;0.00;;;5.10;100.00;;;;;;4984378;28;20048;-74
2023/11/21 01:34:30;;;;;;;0.00;0.00;;;5.10;100.00;;;;;;4939830;28;20808;-74
2023/11/21 01:36:57;;;;;;;0.00;0.00;;;5.00;100.00;;;;;;4946336;29;20407;-72
2023/11/21 01:39:25;;;;;;;0.00;0.00;;;5.00;100.00;;;;;;4930148;28;20706;-72
2023/11/21 01:41:52;;;;;;;0.00;0.00;;;4.90;100.00;;;;;;4956830;28;20075;-73
2023/11/21 01:44:19;;;;;;;0.00;0.00;;;4.90;100.00;;;;;;4930625;28;20059;-73
2023/11/21 01:46:47;;;;;;;0.00;0.00;;;4.90;100.00;;;;;;4945239;28;20516;-72
2023/11/21 01:49:15;;;;;;;0.00;0.00;;;4.90;100.00;;;;;;4941635;28;20043;-73
2023/11/21 01:51:45;;;;;;;0.00;0.00;;;4.90;100.00;;;;;;4948060;28;20078;-73
2023/11/21 01:54:11;;;;;;;0.00;0.00;;;4.90;100.00;;;;;;5020083;28;20096;-73
2023/11/21 01:56:46;;;;;;;0.00;0.00;;;5.00;100.00;;;;;;4974819;28;20093;-73
2023/11/21 01:59:18;;;;;;;0.00;0.00;;;4.90;100.00;;;;;;4959861;28;20055;-73
2023/11/21 02:01:46;;;;;;;0.00;0.00;;;5.00;100.00;;;;;;4948963;28;20051;-73
2023/11/21 02:04:14;;;;;;;0.00;0.00;;;5.00;100.00;;;;;;4967254;28;20043;-72
2023/11/21 02:06:41;;;;;;;0.00;0.00;;;5.00;100.00;;;;;;4968717;28;20049;-73
2023/11/21 02:09:08;;;;;;;0.75;0.75;;;5.00;100.00;;;;;;4968509;28;20048;-73
2023/11/21 02:11:35;;;;;;;0.00;0.00;;;5.00;100.00;;;;;;4961769;28;20048;-72
2023/11/21 02:14:03;;;;;;;0.00;0.00;;;5.00;100.00;;;;;;4966662;28;20048;-73
2023/11/21 02:16:31;;;;;;;0.00;0.00;;;5.10;100.00;;;;;;4932753;28;20074;-73
2023/11/21 02:18:59;;;;;;;0.00;0.00;;;5.10;100.00;;;;;;4944510;29;20078;-73
2023/11/21 02:21:26;;;;;;;0.00;0.00;;;5.10;100.00;;;;;;4948468;28;20055;-73
2023/11/21 02:23:55;;;;;;;0.00;0.00;;;5.10;100.00;;;;;;4931331;28;20054;-73
2023/11/21 02:26:22;;;;;;;0.00;0.00;;;5.10;100.00;;;;;;4946378;29;20117;-73
2023/11/21 02:28:48;;;;;;;0.00;0.00;;;5.10;100.00;;;;;;4945180;28;20491;-74
2023/11/21 02:31:16;;;;;;;0.00;0.00;;;5.10;100.00;;;;;;5028186;28;20047;-73
2023/11/21 02:33:43;;;;;;;0.00;0.00;;;5.00;100.00;;;;;;4950204;28;20443;-73
2023/11/21 02:36:10;;;;;;;0.00;0.00;;;5.00;100.00;;;;;;4947448;28;20048;-73
2023/11/21 02:38:37;;;;;;;0.00;0.00;;;4.90;100.00;;;;;;4955375;28;20051;-73
2023/11/21 02:41:04;;;;;;;0.00;0.00;;;4.90;100.00;;;;;;4955496;28;20049;-73
2023/11/21 02:43:31;;;;;;;0.00;0.00;;;4.90;100.00;;;;;;4971707;28;20055;-74
2023/11/21 02:45:57;;;;;;;0.00;0.00;;;4.90;100.00;;;;;;4946083;28;20059;-75
2023/11/21 02:48:25;;;;;;;0.00;0.00;;;4.80;100.00;;;;;;4945202;29;20047;-74
2023/11/21 02:50:53;;;;;;;0.00;0.00;;;4.80;100.00;;;;;;4947686;28;20047;-74
2023/11/21 02:53:20;;;;;;;0.00;0.00;;;4.70;100.00;;;;;;4986172;28;20045;-74
2023/11/21 02:55:47;;;;;;;0.00;0.00;;;4.70;100.00;;;;;;4946539;28;20047;-75
2023/11/21 02:58:14;;;;;;;0.00;0.00;;;4.70;100.00;;;;;;4929544;28;20047;-75
2023/11/21 03:00:41;;;;;;;0.00;0.00;;;4.70;100.00;;;;;;4944626;28;20548;-75
2023/11/21 03:03:08;;;;;;;0.00;0.00;;;4.70;100.00;;;;;;4941206;29;20423;-75
2023/11/21 03:05:36;;;;;;;0.00;0.00;;;4.70;100.00;;;;;;4946359;28;20071;-74
2023/11/21 03:08:03;;;;;;;0.00;0.00;;;4.70;100.00;;;;;;4934216;29;20531;-74
2023/11/21 03:10:30;;;;;;;0.00;0.00;;;4.70;100.00;;;;;;4931000;28;20708;-74
2023/11/21 03:12:57;;;;;;;0.00;0.00;;;4.80;100.00;;;;;;4962553;28;20050;-72
2023/11/21 03:15:24;;;;;;;0.00;0.00;;;4.80;100.00;;;;;;4939127;28;20055;-70
2023/11/21 03:17:51;;;;;;;0.00;0.00;;;4.80;100.00;;;;;;4957415;28;20059;-70
2023/11/21 03:20:18;;;;;;;0.00;0.00;;;4.80;100.00;;;;;;4930875;28;20056;-71
2023/11/21 03:22:45;;;;;;;0.00;0.00;;;4.90;100.00;;;;;;4946444;28;20062;-71
2023/11/21 03:25:13;;;;;;;0.00;0.00;;;4.90;100.00;;;;;;4960940;28;20428;-75
2023/11/21 03:27:40;;;;;;;0.00;0.00;;;4.90;100.00;;;;;;4925034;28;20059;-73
2023/11/21 03:30:09;;;;;;;0.00;0.00;;;4.90;100.00;;;;;;4945351;28;20047;-72
2023/11/21 03:32:36;;;;;;;0.00;0.00;;;4.90;100.00;;;;;;4978078;28;20055;-73
2023/11/21 03:35:03;;;;;;;0.00;0.00;;;4.90;100.00;;;;;;4949638;28;20051;-73
2023/11/21 03:37:30;;;;;;;0.00;0.00;;;4.90;100.00;;;;;;4947969;28;20148;-72
2023/11/21 03:39:57;;;;;;;0.00;0.00;;;4.90;100.00;;;;;;4962551;28;20051;-74
2023/11/21 03:42:27;;;;;;;0.00;0.00;;;4.90;100.00;;;;;;4963043;28;20074;-71
2023/11/21 03:44:54;;;;;;;0.00;0.00;;;4.90;100.00;;;;;;4937155;28;20048;-72
2023/11/21 03:47:21;;;;;;;0.00;0.00;;;4.90;100.00;;;;;;4936370;28;20141;-71
2023/11/21 03:49:48;;;;;;;0.00;0.00;;;4.90;100.00;;;;;;4942560;28;20467;-72
2023/11/21 03:52:16;;;;;;;0.00;0.00;;;4.90;100.00;;;;;;4942400;28;20043;-71
2023/11/21 03:54:43;;;;;;;0.00;0.00;;;4.90;100.00;;;;;;4941512;28;20475;-71
2023/11/21 03:57:11;;;;;;;0.00;0.00;;;4.90;100.00;;;;;;4923056;28;20075;-72
2023/11/21 03:59:41;;;;;;;0.00;0.00;;;4.90;100.00;;;;;;4957385;28;20148;-71
2023/11/21 04:02:09;;;;;;;0.00;0.00;;;4.90;100.00;;;;;;4922966;28;20519;-71
2023/11/21 04:04:36;;;;;;;0.00;0.00;;;4.90;100.00;;;;;;4950625;28;20066;-71
2023/11/21 04:07:04;;;;;;;0.00;0.00;;;4.90;100.00;;;;;;4940916;28;20052;-71
2023/11/21 04:09:31;;;;;;;0.00;0.00;;;4.90;100.00;;;;;;4943738;28;20508;-71
2023/11/21 04:11:58;;;;;;;0.00;0.00;;;4.90;100.00;;;;;;4942924;28;20047;-71
2023/11/21 04:14:25;;;;;;;0.00;0.00;;;4.90;100.00;;;;;;4951543;28;20715;-71
2023/11/21 04:16:53;;;;;;;0.00;0.00;;;4.90;100.00;;;;;;4940825;28;20051;-71
2023/11/21 04:19:20;;;;;;;0.00;0.00;;;4.90;100.00;;;;;;4945013;28;20052;-71
2023/11/21 04:21:48;;;;;;;0.00;0.00;;;4.90;100.00;;;;;;4931704;28;20087;-71
2023/11/21 04:24:15;;;;;;;0.00;0.00;;;4.90;100.00;;;;;;4981832;28;20121;-72
2023/11/21 04:26:43;;;;;;;0.00;0.00;;;4.90;100.00;;;;;;4926125;28;20087;-72
2023/11/21 04:29:10;;;;;;;0.00;0.00;;;4.90;100.00;;;;;;4949571;28;20672;-71
2023/11/21 04:31:37;;;;;;;0.00;0.00;;;4.90;100.00;;;;;;4940149;28;20055;-71
2023/11/21 04:34:05;;;;;;;0.15;0.15;;;4.90;100.00;;;;;;4923014;28;20124;-72
2023/11/21 04:36:32;;;;;;;0.00;0.00;;;4.90;100.00;;;;;;4944114;28;20055;-72
2023/11/21 04:38:59;;;;;;;2.35;1.65;;;4.90;100.00;;;;;;5022709;28;20067;-72
2023/11/21 04:41:28;;;;;;;0.35;0.35;;;4.90;100.00;;;;;;4960946;28;20071;-72
2023/11/21 04:44:02;;;;;;;0.00;0.00;;;4.90;100.00;;;;;;4942495;28;20090;-74
2023/11/21 04:46:29;;;;;;;0.00;0.00;;;4.90;100.00;;;;;;4942654;28;20139;-72
2023/11/21 04:48:56;;;;;;;0.00;0.00;;;4.90;100.00;;;;;;4951251;28;20531;-72
2023/11/21 04:51:23;;;;;;;0.00;0.00;;;4.90;100.00;;;;;;4941198;28;20540;-72
2023/11/21 04:53:50;;;;;;;0.00;0.00;;;4.90;100.00;;;;;;4938062;28;20549;-72
2023/11/21 04:56:17;;;;;;;0.00;0.00;;;4.90;100.00;;;;;;4932373;28;20079;-72
2023/11/21 04:58:44;;;;;;;0.00;0.00;;;4.90;100.00;;;;;;4952521;28;20055;-72
2023/11/21 05:01:11;;;;;;;0.00;0.00;;;4.80;100.00;;;;;;4936329;28;20051;-72
2023/11/21 05:03:38;;;;;;;0.00;0.00;;;4.80;100.00;;;;;;4942680;28;20051;-72
2023/11/21 05:06:06;;;;;;;0.00;0.00;;;4.80;100.00;;;;;;4943649;28;20052;-71
2023/11/21 05:08:33;;;;;;;0.00;0.00;;;4.80;100.00;;;;;;4924691;28;20466;-72
2023/11/21 05:11:00;;;;;;;0.00;0.00;;;4.80;100.00;;;;;;4945379;28;20041;-71
2023/11/21 05:13:27;;;;;;;0.00;0.00;;;4.80;100.00;;;;;;4927471;28;20051;-71
2023/11/21 05:15:58;;;;;;;0.00;0.00;;;4.70;100.00;;;;;;4939089;28;20051;-71
2023/11/21 05:18:27;;;;;;;0.00;0.00;;;4.70;100.00;;;;;;4943624;28;20055;-70
2023/11/21 05:20:54;;;;;;;0.00;0.00;;;4.70;100.00;;;;;;4947770;28;20051;-70
2023/11/21 05:23:21;;;;;;;0.00;0.00;;;4.70;100.00;;;;;;4969174;28;20119;-71
2023/11/21 05:25:47;;;;;;;0.00;0.00;;;4.70;100.00;;;;;;4941781;28;20491;-70
2023/11/21 05:28:14;;;;;;;0.00;0.00;;;4.70;100.00;;;;;;4945597;28;20734;-70
2023/11/21 05:30:41;;;;;;;0.00;0.00;;;4.70;100.00;;;;;;4957646;28;20120;-71
2023/11/21 05:33:08;;;;;;;0.00;0.00;;;4.70;100.00;;;;;;4928109;28;20408;-74
2023/11/21 05:35:35;;;;;;;0.00;0.00;;;4.60;100.00;;;;;;4937314;28;20648;-73
2023/11/21 05:38:02;;;;;;;0.00;0.00;;;4.60;100.00;;;;;;4946035;28;20525;-78
2023/11/21 05:40:29;;;;;;;0.00;0.00;;;4.60;100.00;;;;;;4951329;28;20087;-68
2023/11/21 05:42:57;;;;;;;0.00;0.00;;;4.60;100.00;;;;;;4939391;28;20055;-71
2023/11/21 05:45:23;;;;;;;0.00;0.00;;;4.50;100.00;;;;;;4937882;28;20175;-73
2023/11/21 05:47:50;;;;;;;0.00;0.00;;;4.50;100.00;;;;;;4938490;28;20573;-71
2023/11/21 05:50:18;;;;;;;0.00;0.00;;;4.50;100.00;;;;;;4920501;28;20070;-73
2023/11/21 05:52:46;;;;;;;0.00;0.00;;;4.50;100.00;;;;;;4934030;28;20051;-75
2023/11/21 05:55:13;;;;;;;0.00;0.00;;;4.50;100.00;;;;;;4920197;28;20055;-70
2023/11/21 05:57:42;;;;;;;0.00;0.00;;;4.50;100.00;;;;;;4936526;28;20718;-70
2023/11/21 06:00:25;;;;;;;0.00;0.00;;;4.50;100.00;;;;;;4937108;28;20055;-71
2023/11/21 06:02:53;;;;;;;0.00;0.00;;;4.50;100.00;;;;;;4918266;28;20161;-68
2023/11/21 06:05:24;;;;;;;0.00;0.00;;;4.50;100.00;;;;;;4919841;28;20043;-73
2023/11/21 06:07:53;;;;;;;0.00;0.00;;;4.50;100.00;;;;;;4921121;28;20177;-69
2023/11/21 06:10:21;;;;;;;0.00;0.00;;;4.50;100.00;;;;;;4939019;28;20048;-72
2023/11/21 06:12:48;;;;;;;0.00;0.00;;;4.50;100.00;;;;;;4940837;28;20050;-75
2023/11/21 06:15:16;;;;;;;0.00;0.00;;;4.50;100.00;;;;;;4936765;28;20399;-72
2023/11/21 06:17:44;;;;;;;0.00;0.00;;;4.50;100.00;;;;;;4936787;28;20724;-73
2023/11/21 06:20:14;;;;;;;0.00;0.00;;;4.50;100.00;;;;;;4935591;28;20053;-72
2023/11/21 06:22:42;;;;;;;0.00;0.00;;;4.50;100.00;;;;;;4921897;28;20047;-71
2023/11/21 06:25:12;;;;;;;0.00;0.00;;;4.50;100.00;;;;;;4936820;28;20681;-73
2023/11/21 06:27:42;;;;;;;0.00;0.00;;;4.50;100.00;;;;;;4939625;28;20852;-76
2023/11/21 06:30:11;;;;;;;0.00;0.00;;;4.50;100.00;;;;;;4924945;28;20419;-77
2023/11/21 06:32:39;;;;;;;0.00;0.00;;;4.40;100.00;;;;;;4938944;28;20062;-72
2023/11/21 06:35:08;;;;;;;0.00;0.00;;;4.50;100.00;;;;;;4938177;28;20865;-72
2023/11/21 06:37:35;;;;;;;0.00;0.00;;;4.40;100.00;;;;;;4936720;28;20515;-71
2023/11/21 06:40:03;;;;;;;0.00;0.00;;;4.40;100.00;;;;;;4936592;28;20570;-71
2023/11/21 06:42:30;;;;;;;0.00;0.00;;;4.40;100.00;;;;;;4935549;28;20058;-71
2023/11/21 06:44:58;;;;;;;0.00;0.00;;;4.40;100.00;;;;;;4937041;28;20051;-71
2023/11/21 06:47:26;;;;;;;0.00;0.00;;;4.40;100.00;;;;;;4936643;28;20082;-71
2023/11/21 06:49:53;;;;;;;0.00;0.00;;;4.40;100.00;;;;;;4936891;28;20094;-71
2023/11/21 06:52:20;;;;;;;0.00;0.00;;;4.30;100.00;;;;;;4936825;28;21327;-71
2023/11/21 06:54:49;;;;;;;0.00;0.00;;;4.30;100.00;;;;;;4936490;28;20055;-71
2023/11/21 06:57:17;;;;;;;0.00;0.00;;;4.30;100.00;;;;;;4919648;28;20138;-71
2023/11/21 06:59:44;;;;;;;0.00;0.00;;;4.30;100.00;;;;;;4937031;28;20718;-71
2023/11/21 07:02:11;;;;;;;0.00;0.00;;;4.30;100.00;;;;;;4917982;29;20066;-71
2023/11/21 07:04:38;;;;;;;0.00;0.00;;;4.20;100.00;;;;;;4918701;28;20066;-71
2023/11/21 07:07:06;;;;;;;0.00;0.00;;;4.20;100.00;;;;;;4936349;28;20700;-71
2023/11/21 07:09:34;;;;;;;0.00;0.00;;;4.20;100.00;;;;;;4936091;28;20052;-71
2023/11/21 07:12:03;;;;;;;0.00;0.00;;;4.20;100.00;;;;;;4936013;28;20865;-70
2023/11/21 07:14:31;;;;;;;0.00;0.00;;;4.20;100.00;;;;;;4936256;28;20141;-73
2023/11/21 07:16:57;;;;;;;0.00;0.00;;;4.20;100.00;;;;;;4921244;29;20130;-74
2023/11/21 07:19:24;;;;;;;0.00;0.00;;;4.20;100.00;;;;;;4921568;28;20063;-74
2023/11/21 07:21:51;;;;;;;0.00;0.00;;;4.20;100.00;;;;;;4936469;28;20059;-70
2023/11/21 07:24:19;;;;;;;0.00;0.00;;;4.10;100.00;;;;;;4939121;28;20094;-70
2023/11/21 07:26:45;;;;;;;0.00;0.00;;;4.10;100.00;;;;;;4942369;28;20138;-70
2023/11/21 07:29:13;;;;;;;0.73;0.73;;;4.10;100.00;;;;;;4923421;28;20800;-70
2023/11/21 07:31:41;;;;;;;0.00;0.00;;;4.10;100.00;;;;;;4925802;29;20062;-70
2023/11/21 07:34:08;;;;;;;0.00;0.00;;;4.10;100.00;;;;;;4941883;28;20662;-70
2023/11/21 07:36:36;;;;;;;0.00;0.00;;;4.00;100.00;;;;;;4943407;28;20065;-70
2023/11/21 07:39:03;;;;;;;0.00;0.00;;;4.00;100.00;;;;;;4922025;28;20166;-70
2023/11/21 07:41:30;;;;;;;0.00;0.00;;;4.00;100.00;;;;;;4966683;28;20063;-70
2023/11/21 07:43:57;;;;;;;0.00;0.00;;;3.90;100.00;;;;;;4942226;28;20059;-76
2023/11/21 07:46:26;;;;;;;0.00;0.00;;;3.90;100.00;;;;;;4928027;29;20047;-75
2023/11/21 07:48:55;;;;;;;0.00;0.00;;;3.90;100.00;;;;;;4948975;28;20066;-74
2023/11/21 07:51:22;;;;;;;0.00;0.00;;;3.80;100.00;;;;;;4944878;28;20392;-73
2023/11/21 07:53:49;;;;;;;0.00;0.00;;;3.90;100.00;;;;;;4943754;29;20051;-73
2023/11/21 07:56:16;;;;;;;0.00;0.00;;;3.80;100.00;;;;;;4936242;28;20048;-73
2023/11/21 07:58:44;;;;;;;0.00;0.00;;;3.80;100.00;;;;;;4942856;28;20051;-74
2023/11/21 08:01:11;;;;;;;0.00;0.00;;;3.80;100.00;;;;;;4943504;28;20047;-71
2023/11/21 08:03:38;;;;;;;0.00;0.00;;;3.80;100.00;;;;;;4943974;29;20138;-71
2023/11/21 08:06:06;;;;;;;0.00;0.00;;;3.90;100.00;;;;;;4944060;29;20411;-71
2023/11/21 08:08:33;;;;;;;0.00;0.00;;;3.90;100.00;;;;;;4942716;28;20086;-71
2023/11/21 08:11:01;;;;;;;0.00;0.00;;;4.00;100.00;;;;;;4941252;28;20071;-71
2023/11/21 08:13:32;;;;;;;0.00;0.00;;;4.00;100.00;;;;;;4931021;28;20415;-71
2023/11/21 08:16:02;;;;;;;0.00;0.00;;;4.10;100.00;;;;;;4940005;28;20691;-71
2023/11/21 08:18:29;;;;;;;0.00;0.00;;;4.10;100.00;;;;;;4942956;28;20055;-71
2023/11/21 08:20:57;;;;;;;0.00;0.00;;;4.20;100.00;;;;;;4941645;28;20101;-71
2023/11/21 08:23:25;;;;;;;0.00;0.00;;;4.30;100.00;;;;;;4925118;29;20138;-71
2023/11/21 08:25:53;;;;;;;0.00;0.00;;;4.40;100.00;;;;;;4946307;28;20044;-71
2023/11/21 08:28:22;;;;;;;0.47;0.47;;;4.40;100.00;;;;;;4997161;28;20073;-71
2023/11/21 08:30:49;;;;;;;0.00;0.00;;;4.50;100.00;;;;;;4944919;28;20055;-71
2023/11/21 08:33:16;;;;;;;0.00;0.00;;;4.60;100.00;;;;;;4983057;28;20052;-71
2023/11/21 08:35:43;;;;;;;0.00;0.00;;;4.60;100.00;;;;;;4965707;28;20093;-71
2023/11/21 08:38:10;;;;;;;0.00;0.00;;;4.70;100.00;;;;;;4976401;28;20725;-71
2023/11/21 08:40:37;;;;;;;0.45;0.45;;;4.80;100.00;;;;;;4950095;28;20060;-74
2023/11/21 08:43:04;;;;;;;0.00;0.00;;;4.90;100.00;;;;;;4942102;28;20051;-73
2023/11/21 08:45:34;;;;;;;0.00;0.00;;;4.90;100.00;;;;;;4943230;28;20075;-72
2023/11/21 08:48:02;;;;;;;0.00;0.00;;;5.00;100.00;;;;;;4927977;28;20068;-71
2023/11/21 08:50:29;;;;;;;0.90;0.30;;;5.00;100.00;;;;;;4943301;28;20053;-72
2023/11/21 08:52:56;;;;;;;0.10;0.10;;;5.10;100.00;;;;;;4943619;28;20051;-72
2023/11/21 08:55:23;;;;;;;0.00;0.00;;;5.20;100.00;;;;;;4925916;28;20059;-76
2023/11/21 08:57:50;;;;;;;0.00;0.00;;;5.20;100.00;;;;;;4940651;28;20112;-76
2023/11/21 09:00:18;;;;;;;0.00;0.00;;;5.20;100.00;;;;;;4942676;28;20054;-74
2023/11/21 09:02:46;;;;;;;0.00;0.00;;;5.20;100.00;;;;;;4944645;28;20535;-81
2023/11/21 09:05:14;;;;;;;0.00;0.00;;;5.20;100.00;;;;;;4935805;28;20086;-78
2023/11/21 09:07:42;;;;;;;0.00;0.00;;;5.10;100.00;;;;;;4944176;28;20055;-73
2023/11/21 09:10:09;;;;;;;0.00;0.00;;;5.20;100.00;;;;;;4959538;28;20079;-73
2023/11/21 09:12:38;;;;;;;0.00;0.00;;;5.20;100.00;;;;;;4960335;28;20051;-74
2023/11/21 09:15:06;;;;;;;0.00;0.00;;;5.30;100.00;;;;;;4956898;28;20051;-76
2023/11/21 09:17:36;;;;;;;0.00;0.00;;;5.30;100.00;;;;;;4977533;28;20518;-76
2023/11/21 09:20:05;;;;;;;0.00;0.00;;;5.30;100.00;;;;;;4987844;28;20087;-79
2023/11/21 09:22:33;;;;;;;0.00;0.00;;;5.30;100.00;;;;;;4997911;28;20059;-75
2023/11/21 09:25:00;;;;;;;0.00;0.00;;;5.20;100.00;;;;;;4987098;28;20094;-76
2023/11/21 09:27:27;;;;;;;0.00;0.00;;;5.20;100.00;;;;;;4986887;28;20053;-74
2023/11/21 09:29:54;;;;;;;0.00;0.00;;;5.10;100.00;;;;;;4977615;28;20132;-74
2023/11/21 09:32:21;;;;;;;0.00;0.00;;;5.00;100.00;;;;;;4977192;28;20715;-73
2023/11/21 09:34:51;;;;;;;0.00;0.00;;;5.00;100.00;;;;;;4931587;28;20778;-73
2023/11/21 09:37:18;;;;;;;0.00;0.00;;;5.00;100.00;;;;;;4935841;28;20059;-73
2023/11/21 09:39:47;;;;;;;0.00;0.00;;;5.00;100.00;;;;;;4959455;28;20070;-74
2023/11/21 09:42:30;;;;;;;0.00;0.00;;;4.90;100.00;;;;;;4958898;28;20053;-74
2023/11/21 09:45:17;;;;;;;0.00;0.00;;;4.90;100.00;;;;;;4995885;28;20061;-72
2023/11/21 09:47:46;;;;;;;0.00;0.00;;;4.80;100.00;;;;;;4982249;28;20493;-75
2023/11/21 09:50:21;;;;;;;0.00;0.00;;;4.80;100.00;;;;;;4959699;28;20476;-74
2023/11/21 09:53:27;;;;;;;0.00;0.00;;;4.90;100.00;;;;;;4994867;28;20051;-74
2023/11/21 09:55:54;;;;;;;0.00;0.00;;;4.80;100.00;;;;;;4932257;28;20407;-77
2023/11/21 09:58:24;;;;;;;0.10;0.10;;;4.80;100.00;;;;;;4943890;28;20142;-74
2023/11/21 10:00:53;;;;;;;0.00;0.00;;;4.90;100.00;;;;;;4979390;28;20061;-74
2023/11/21 10:03:21;;;;;;;0.00;0.00;;;5.00;100.00;;;;;;4928938;28;20055;-73
2023/11/21 10:05:50;;;;;;;0.85;0.85;;;5.00;100.00;;;;;;4943667;28;20051;-74
2023/11/21 10:08:19;;;;;;;0.00;0.00;;;5.10;100.00;;;;;;4942967;28;20047;-74
2023/11/21 10:10:51;;;;;;;0.00;0.00;;;5.30;100.00;;;;;;4932166;28;20062;-68
2023/11/21 10:13:19;;;;;;;0.00;0.00;;;5.40;100.00;;;;;;4940374;28;20051;-68
2023/11/21 10:15:52;;;;;;;0.00;0.00;;;5.60;100.00;;;;;;4939540;28;20054;-69
2023/11/21 10:18:23;;;;;;;0.00;0.00;;;5.60;100.00;;;;;;4944947;28;20536;-72
2023/11/21 10:20:53;;;;;;;0.00;0.00;;;5.70;100.00;;;;;;4944681;28;20150;-74
2023/11/21 10:23:22;;;;;;;0.00;0.00;;;5.70;100.00;;;;;;5025623;28;20055;-72
2023/11/21 10:25:52;;;;;;;0.00;0.00;;;5.70;100.00;;;;;;4930694;28;20455;-71
2023/11/21 10:28:20;;;;;;;0.00;0.00;;;5.70;100.00;;;;;;4944786;28;20074;-71
2023/11/21 10:30:48;;;;;;;0.00;0.00;;;5.70;100.00;;;;;;4927305;28;20070;-70
2023/11/21 10:33:14;;;;;;;0.00;0.00;;;5.80;100.00;;;;;;4936962;28;20044;-72
2023/11/21 10:35:41;;;;;;;0.00;0.00;;;5.80;100.00;;;;;;4917633;29;20081;-70
2023/11/21 10:38:13;;;;;;;0.00;0.00;;;5.80;100.00;;;;;;5025595;28;20066;-71
2023/11/21 10:40:42;;;;;;;0.00;0.00;;;5.80;100.00;;;;;;4956409;28;20084;-70
2023/11/21 10:43:10;;;;;;;0.00;0.00;;;5.70;100.00;;;;;;4944378;28;20147;-70
2023/11/21 10:45:37;;;;;;;0.00;0.00;;;5.80;100.00;;;;;;4944255;28;20070;-70
2023/11/21 10:48:17;;;;;;;0.00;0.00;;;5.70;100.00;;;;;;4942600;28;20106;-71
2023/11/21 10:50:46;;;;;;;0.00;0.00;;;5.80;100.00;;;;;;4927038;28;20052;-74
2023/11/21 10:53:13;;;;;;;0.00;0.00;;;5.80;100.00;;;;;;4927183;28;20423;-73
2023/11/21 10:55:40;;;;;;;0.00;0.00;;;5.80;100.00;;;;;;4943246;28;20584;-72
2023/11/21 10:58:10;;;;;;;0.00;0.00;;;5.80;100.00;;;;;;4927069;28;20047;-72
2023/11/21 11:00:40;;;;;;;0.00;0.00;;;5.70;100.00;;;;;;4941177;28;20059;-72
2023/11/21 11:03:13;;;;;;;0.00;0.00;;;5.70;100.00;;;;;;4937092;28;20059;-72
2023/11/21 11:05:51;;;;;;;0.00;0.00;;;5.70;100.00;;;;;;4960616;28;20066;-72
2023/11/21 11:08:26;;;;;;;0.17;0.17;;;5.80;100.00;;;;;;4926389;28;20059;-72
2023/11/21 11:10:55;;;;;;;0.00;0.00;;;5.80;100.00;;;;;;4970869;28;20051;-73
2023/11/21 11:13:22;;;;;;;0.00;0.00;;;5.90;100.00;;;;;;4925822;28;20054;-72
2023/11/21 11:15:50;;;;;;;0.00;0.00;;;6.00;100.00;;;;;;4924941;28;21985;-72
2023/11/21 11:18:18;;;;;;;0.00;0.00;;;6.00;100.00;;;;;;4959220;28;20049;-72
2023/11/21 11:20:47;;;;;;;0.00;0.00;;;5.90;100.00;;;;;;4959041;28;20767;-72
2023/11/21 11:23:43;;;;;;;0.00;0.00;;;5.80;100.00;;;;;;4959340;28;20058;-74
2023/11/21 11:26:37;;;;;;;0.00;0.00;;;5.80;100.00;;;;;;4942224;28;20091;-73
2023/11/21 11:29:29;;;;;;;0.00;0.00;;;5.60;100.00;;;;;;4924660;28;20054;-71
2023/11/21 11:32:25;;;;;;;13.43;6.05;;;5.60;100.00;;;;;;4948604;28;20051;-71
2023/11/21 11:35:18;;;;;;;16.17;6.28;;;5.60;100.00;;;;;;4934776;28;20116;-71
2023/11/21 11:37:45;;;;;;;12.90;5.50;;;5.60;100.00;;;;;;4952013;28;20079;-71
2023/11/21 11:40:13;;;;;;;15.02;5.28;;;5.60;100.00;;;;;;4926350;28;20811;-72
2023/11/21 11:42:54;;;;;;;16.08;5.97;;;5.60;100.00;;;;;;4943657;28;20707;-71
2023/11/21 11:45:21;;;;;;;25.58;8.68;;;5.60;100.00;;;;;;4946205;28;20082;-72
2023/11/21 11:47:48;;;;;;;13.70;6.13;;;5.70;100.00;;;;;;4971640;28;20137;-71
2023/11/21 11:50:17;;;;;;;13.75;5.47;;;5.80;100.00;;;;;;4947605;28;20041;-71
2023/11/21 11:52:54;;;;;;;12.43;5.03;;;6.00;100.00;;;;;;4943399;28;20614;-72
2023/11/21 11:55:24;;;;;;;11.65;5.28;;;6.00;100.00;;;;;;4943259;28;20096;-74
2023/11/21 11:57:56;;;;;;;16.23;5.10;;;6.00;100.00;;;;;;4943244;28;20538;-72
2023/11/21 12:00:37;;;;;;;20.17;6.72;;;6.00;100.00;;;;;;4942005;28;20069;-72
2023/11/21 12:03:07;;;;;;;10.15;4.82;;;6.00;100.00;;;;;;4971656;28;20126;-72
2023/11/21 12:05:38;;;;;;;16.17;6.55;;;6.00;100.00;;;;;;4940189;28;20528;-72
2023/11/21 12:08:07;;;;;;;10.73;5.05;;;5.90;100.00;;;;;;4941575;28;20052;-73
2023/11/21 12:10:36;;;;;;;10.43;4.80;;;5.80;100.00;;;;;;4961981;28;20692;-73
2023/11/21 12:13:13;;;;;;;13.07;4.80;;;5.70;100.00;;;;;;4943523;28;20640;-75
2023/11/21 12:15:41;;;;;;;10.15;4.30;;;5.60;100.00;;;;;;4944345;28;20079;-73
2023/11/21 12:18:08;;;;;;;11.45;4.45;;;5.60;100.00;;;;;;4958611;28;20060;-74
2023/11/21 12:20:38;;;;;;;14.30;4.78;;;5.50;100.00;;;;;;4943051;28;20047;-73
2023/11/21 12:23:08;;;;;;;10.35;4.35;;;5.50;100.00;;;;;;4937598;28;20134;-73
2023/11/21 12:25:36;;;;;;;10.48;4.90;;;5.50;100.00;;;;;;4946664;28;20070;-75
2023/11/21 12:28:04;;;;;;;12.25;4.25;;;5.60;100.00;;;;;;4934490;28;20058;-75
2023/11/21 12:30:35;;;;;;;16.40;4.63;;;5.70;100.00;;;;;;4937230;28;20056;-73
2023/11/21 12:33:03;;;;;;;9.40;4.03;;;5.80;100.00;;;;;;4937723;28;20058;-72
2023/11/21 12:35:35;;;;;;;17.52;4.95;;;5.80;100.00;;;;;;4938990;28;20059;-72
2023/11/21 12:38:03;;;;;;;10.77;5.10;;;5.80;100.00;;;;;;4937249;28;20044;-70
2023/11/21 12:40:30;;;;;;;10.13;4.63;;;5.80;100.00;;;;;;4941949;28;20052;-71
2023/11/21 12:43:01;;;;;;;10.15;5.00;;;5.80;100.00;;;;;;4947568;28;20055;-72
2023/11/21 12:45:30;;;;;;;12.10;4.60;;;5.70;100.00;;;;;;4939607;28;20820;-73
2023/11/21 12:48:00;;;;;;;15.07;4.68;;;5.60;100.00;;;;;;4964712;28;20173;-73
2023/11/21 12:50:33;;;;;;;8.73;4.32;;;5.50;100.00;;;;;;4945546;28;20116;-72
2023/11/21 12:53:05;;;;;;;9.90;3.75;;;5.40;100.00;;;;;;4942851;28;20043;-72